9V9

Chamberlain Municipal Airport

Chamberlain, South Dakota, USA
METAR K9V9 191555Z AUTO 00000KT 10SM OVC090 M19/M23 A3039 RMK AO2 T11911230
Observed Flight Rules
Jan-19 @ 15:55 UTC (45 minutes ago) Visual Flight Rules
Visibility Clouds
10 miles
  • Overcast at 9,000' AGL
Temperatures Readings
Current -19°C / -2°F
Dewpoint -23°C / -9°F
Humidity 71%
Altimeter 30.39" Hg
Pressure 1029.11 hPa
Elevation 519
METAR K9V9 191555Z AUTO 00000KT 10SM OVC090 M19/M23 A3039 RMK AO2 T11911230
Observed Flight Rules
Jan-19 @ 15:55 UTC
(45 minutes ago)
VFR
Clouds
  • Overcast at 9,000' AGL
Temperature Dewpoint
-19°C / -2°F -23°C / -9°F
Humidity Altimeter Pressure
71% 30.39" Hg 1029.11 hPa